Nearby METAR Reports

 

KSJC - San Jose, California, USA
Distance from station: NE 9mi, 14km
Updated: Tue, 08-14-2018 12:53am CDT
Mostly cloudy
Mostly cloudy
 Wind from NW
Wind: NW 10 mph , 17 km/h
Temperature: 59°F , 15°C
Dew Point: 55°F , 13°C
Humidity: 88%
Barometer: 29.95 inHg , 1014.2 hPa
Clouds: Mostly cloudy
Visibility: 10 miles , 16 km
Cloud details: Few Clouds 800 ft
Partly cloudy 1000 ft
Mostly cloudy 1200 ft
2018/08/14 05:53 KSJC 140553Z 32009KT 10SM FEW008 SCT010 BKN012 15/13 A2995 RMK AO2 SLP140 T01500133 10222 20150 51010
KNUQ - Moffett Nas/Mtn, California, USA
Distance from station: N 9mi, 14km
Updated: Tue, 08-14-2018 12:56am CDT
Overcast
Overcast
 Wind from NNE
Wind: NNE 9 mph , 15 km/h
Temperature: 61°F , 16°C
Dew Point: 57°F , 14°C
Humidity: 88%
Barometer: 29.95 inHg , 1014.2 hPa
Clouds: Overcast
Visibility: 10 miles , 16 km
Cloud details: Overcast 1000 ft
2018/08/14 05:56 KNUQ 140556Z 02008KT 10SM OVC010 16/14 A2995 RMK AO2 SLP144 T01560139 10200 20156 51007
 
KPAO - Palo Alto, California, USA
Distance from station: NNW 14mi, 23km
Updated: Mon, 08-13-2018 10:47pm CDT
NOT Current
Few Clouds
Few Clouds
 Wind from NNW
Wind: NNW 15 mph , 24 km/h
Temperature: 61°F , 16°C
Dew Point: 57°F , 14°C
Humidity: 88%
Barometer: 29.94 inHg , 1013.9 hPa
Clouds: Few Clouds
Visibility: 10 miles , 16 km
Cloud details: Few Clouds 1000 ft
2018/08/14 03:47 KPAO 140347Z 33013KT 10SM FEW010 16/14 A2994 RMK LAST
KRHV - San Jose/Reid, California, USA
Distance from station: ENE 12mi, 19km
Updated: Mon, 08-13-2018 11:47pm CDT
NOT Current
Clear
Clear
 Wind from NW
Wind: NW 9 mph , 15 km/h
Temperature: 61°F , 16°C
Dew Point: 57°F , 14°C
Humidity: 88%
Barometer: 29.92 inHg , 1013.2 hPa
Clouds: Clear
Visibility: 8 miles , 13 km
2018/08/14 04:47 KRHV 140447Z 32008KT 8SM SKC 16/14 A2992 RMK LAST
 
KOAK - Oakland, California, USA
Distance from station: NNW 31mi, 50km
Updated: Tue, 08-14-2018 12:53am CDT
Overcast
Overcast
 Wind from W
Wind: W 10 mph , 17 km/h
Temperature: 57°F , 14°C
Dew Point: 55°F , 13°C
Humidity: 94%
Barometer: 29.95 inHg , 1014.2 hPa
Clouds: Overcast
Visibility: 10 miles , 16 km
Cloud details: Overcast 800 ft
2018/08/14 05:53 KOAK 140553Z 26009KT 10SM OVC008 14/13 A2995 RMK AO2 SLP140 T01440128 10183 20139 53003
KSQL - San Carlos Airpo, California, USA
Distance from station: NW 21mi, 34km
Updated: Tue, 08-14-2018 1:20am CDT
Overcast
Overcast
 Wind from W
Wind: W 9 mph , 15 km/h
Temperature: 59°F , 15°C
Dew Point: 54°F , 12°C
Humidity: 82%
Barometer: 29.95 inHg , 1014.2 hPa
Clouds: Overcast
Visibility: 10 miles , 16 km
Cloud details: Overcast 1600 ft
2018/08/14 06:20 KSQL 140620Z AUTO 27008KT 10SM OVC016 15/12 A2995 RMK AO2
 
KSFO - San Francisco, California, USA
Distance from station: NW 30mi, 49km
Updated: Tue, 08-14-2018 12:56am CDT
Mostly cloudy
Mostly cloudy
 Wind from WSW
Wind: WSW 16 mph , 26 km/h
Temperature: 57°F , 14°C
Dew Point: 54°F , 12°C
Humidity: 88%
Barometer: 29.94 inHg , 1013.9 hPa
Clouds: Mostly cloudy
Visibility: 10 miles , 16 km
Cloud details: Few Clouds 600 ft
Partly cloudy 800 ft
Mostly cloudy 1000 ft
2018/08/14 05:56 KSFO 140556Z 25014KT 10SM FEW006 SCT008 BKN010 14/12 A2994 RMK AO2 SLP140 T01390117 10178 20128 53003
KE16 - San Martin, California, USA
Distance from station: ESE 27mi, 43km
Updated: Sun, 08-05-2018 5:05am CDT
NOT Current
Clear
Clear
 Wind from calm
Wind: Calm
Temperature: 61°F , 16°C
Dew Point: 48°F , 9°C
Humidity: 63%
Barometer: 29.93 inHg , 1013.5 hPa
Clouds: Clear
Visibility: 10 miles , 16 km
2018/08/05 10:05 KE16 051005Z AUTO 00000KT 10SM CLR 16/09 A2993 RMK AO2
 
KWVI - Watsonville, California, USA
Distance from station: SSE 27mi, 44km
Updated: Tue, 08-14-2018 12:53am CDT
Overcast
Overcast
 Wind from NE
Wind: NE 3 mph , 6 km/h
Temperature: 57°F , 14°C
Dew Point: 55°F , 13°C
Humidity: 94%
Barometer: 29.95 inHg , 1014.2 hPa
Clouds: Overcast
Visibility: 10 miles , 16 km
Cloud details: Overcast 600 ft
2018/08/14 05:53 KWVI 140553Z AUTO 05003KT 10SM OVC006 14/13 A2995 RMK AO2 SLP141 T01440133 10183 20144 53003
KHAF - Half Moon Bay, California, USA
Distance from station: WNW 31mi, 50km
Updated: Tue, 08-14-2018 1:20am CDT
Mist
Mist
 Wind from NW
Wind: NW 8 mph , 13 km/h
Temperature: 55°F , 13°C
Dew Point: 55°F , 13°C
Humidity: 100%
Barometer: 29.97 inHg , 1014.9 hPa
Summary: Mist
Visibility: 1 1/2 miles , 2 km
2018/08/14 06:20 KHAF 140620Z AUTO 32007KT 1 1/2SM BR 13/13 A2997 RMK AO2
 
KHWD - Hayward, California, USA
Distance from station: N 28mi, 44km
Updated: Tue, 08-14-2018 12:54am CDT
Overcast
Overcast
 Wind from W
Wind: W 10 mph , 17 km/h
Temperature: 61°F , 16°C
Dew Point: 54°F , 12°C
Humidity: 77%
Barometer: 29.94 inHg , 1013.9 hPa
Clouds: Overcast
Visibility: 10 miles , 16 km
Cloud details: Overcast 700 ft
2018/08/14 05:54 KHWD 140554Z 27009KT 10SM OVC007 16/12 A2994 RMK AO2 SLP149 T01560122 10194 20150 52003
KLVK - Livermore, California, USA
Distance from station: NNE 31mi, 51km
Updated: Tue, 08-14-2018 12:53am CDT
Clear
Clear
 Wind from WNW
Wind: WNW 12 mph , 19 km/h
Temperature: 57°F , 14°C
Dew Point: 54°F , 12°C
Humidity: 88%
Barometer: 29.91 inHg , 1012.9 hPa
Clouds: Clear
Visibility: 10 miles , 16 km
2018/08/14 05:53 KLVK 140553Z AUTO 30010KT 10SM CLR 14/12 A2991 RMK AO2 SLP128 T01390117 10261 20139 51008